sensor_id;sensor_type;location;lat;lon;timestamp;temperature;humidity
38784;DHT22;24531;45.502;12.238;2023-10-19T00:02:23;16.10;99.90
38784;DHT22;24531;45.502;12.238;2023-10-19T00:04:48;16.20;99.90
38784;DHT22;24531;45.502;12.238;2023-10-19T00:07:14;16.20;99.90
38784;DHT22;24531;45.502;12.238;2023-10-19T00:09:41;16.20;99.90
38784;DHT22;24531;45.502;12.238;2023-10-19T00:12:10;16.30;99.90
38784;DHT22;24531;45.502;12.238;2023-10-19T00:14:36;16.30;99.90
38784;DHT22;24531;45.502;12.238;2023-10-19T00:17:01;16.30;99.90
38784;DHT22;24531;45.502;12.238;2023-10-19T00:19:32;16.20;99.90
38784;DHT22;24531;45.502;12.238;2023-10-19T00:22:04;16.20;99.90
38784;DHT22;24531;45.502;12.238;2023-10-19T00:24:36;16.30;99.90
38784;DHT22;24531;45.502;12.238;2023-10-19T00:27:02;16.20;99.90
38784;DHT22;24531;45.502;12.238;2023-10-19T00:29:33;16.20;99.90
38784;DHT22;24531;45.502;12.238;2023-10-19T00:32:05;16.20;99.90
38784;DHT22;24531;45.502;12.238;2023-10-19T00:34:32;16.20;99.90
38784;DHT22;24531;45.502;12.238;2023-10-19T00:36:59;16.10;99.90
38784;DHT22;24531;45.502;12.238;2023-10-19T00:39:36;16.20;99.90
38784;DHT22;24531;45.502;12.238;2023-10-19T00:42:09;16.20;99.90
38784;DHT22;24531;45.502;12.238;2023-10-19T00:44:34;16.20;99.90
38784;DHT22;24531;45.502;12.238;2023-10-19T00:47:07;16.20;99.90
38784;DHT22;24531;45.502;12.238;2023-10-19T00:49:38;16.20;99.90
38784;DHT22;24531;45.502;12.238;2023-10-19T00:52:06;16.20;99.90
38784;DHT22;24531;45.502;12.238;2023-10-19T00:54:45;16.20;99.90
38784;DHT22;24531;45.502;12.238;2023-10-19T00:57:19;16.20;99.90
38784;DHT22;24531;45.502;12.238;2023-10-19T01:00:02;16.20;99.90
38784;DHT22;24531;45.502;12.238;2023-10-19T01:02:41;16.20;99.90
38784;DHT22;24531;45.502;12.238;2023-10-19T01:05:10;16.20;99.90
38784;DHT22;24531;45.502;12.238;2023-10-19T01:07:39;16.20;99.90
38784;DHT22;24531;45.502;12.238;2023-10-19T01:10:07;16.20;99.90
38784;DHT22;24531;45.502;12.238;2023-10-19T01:12:45;16.30;99.90
38784;DHT22;24531;45.502;12.238;2023-10-19T01:15:15;16.30;99.90
38784;DHT22;24531;45.502;12.238;2023-10-19T01:18:07;16.30;99.90
38784;DHT22;24531;45.502;12.238;2023-10-19T01:20:36;16.30;99.90
38784;DHT22;24531;45.502;12.238;2023-10-19T01:23:17;16.30;99.90
38784;DHT22;24531;45.502;12.238;2023-10-19T01:25:58;16.30;99.90
38784;DHT22;24531;45.502;12.238;2023-10-19T01:28:35;16.40;99.90
38784;DHT22;24531;45.502;12.238;2023-10-19T01:31:17;16.30;99.90
38784;DHT22;24531;45.502;12.238;2023-10-19T01:34:03;16.30;99.90
38784;DHT22;24531;45.502;12.238;2023-10-19T01:36:34;16.30;99.90
38784;DHT22;24531;45.502;12.238;2023-10-19T01:39:21;16.40;99.90
38784;DHT22;24531;45.502;12.238;2023-10-19T01:41:46;16.40;99.90
38784;DHT22;24531;45.502;12.238;2023-10-19T01:44:15;16.40;99.90
38784;DHT22;24531;45.502;12.238;2023-10-19T01:46:42;16.40;99.90
38784;DHT22;24531;45.502;12.238;2023-10-19T01:49:11;16.40;99.90
38784;DHT22;24531;45.502;12.238;2023-10-19T01:51:37;16.40;99.90
38784;DHT22;24531;45.502;12.238;2023-10-19T01:54:09;16.40;99.90
38784;DHT22;24531;45.502;12.238;2023-10-19T01:56:35;16.40;99.90
38784;DHT22;24531;45.502;12.238;2023-10-19T01:59:02;16.40;99.90
38784;DHT22;24531;45.502;12.238;2023-10-19T02:01:29;16.40;99.90
38784;DHT22;24531;45.502;12.238;2023-10-19T02:04:01;16.30;99.90
38784;DHT22;24531;45.502;12.238;2023-10-19T02:06:31;16.30;99.90
38784;DHT22;24531;45.502;12.238;2023-10-19T02:09:13;16.30;99.90
38784;DHT22;24531;45.502;12.238;2023-10-19T02:11:57;16.30;99.90
38784;DHT22;24531;45.502;12.238;2023-10-19T02:14:24;16.30;99.90
38784;DHT22;24531;45.502;12.238;2023-10-19T02:16:55;16.30;99.90
38784;DHT22;24531;45.502;12.238;2023-10-19T02:19:26;16.30;99.90
38784;DHT22;24531;45.502;12.238;2023-10-19T02:21:53;16.30;99.90
38784;DHT22;24531;45.502;12.238;2023-10-19T02:24:19;16.30;99.90
38784;DHT22;24531;45.502;12.238;2023-10-19T02:26:47;16.30;99.90
38784;DHT22;24531;45.502;12.238;2023-10-19T02:29:13;16.40;99.90
38784;DHT22;24531;45.502;12.238;2023-10-19T02:31:40;16.40;99.90
38784;DHT22;24531;45.502;12.238;2023-10-19T02:34:10;16.40;99.90
38784;DHT22;24531;45.502;12.238;2023-10-19T02:36:38;15.60;99.90
38784;DHT22;24531;45.502;12.238;2023-10-19T02:39:06;16.30;99.90
38784;DHT22;24531;45.502;12.238;2023-10-19T02:41:36;16.30;99.90
38784;DHT22;24531;45.502;12.238;2023-10-19T02:44:02;16.30;99.90
38784;DHT22;24531;45.502;12.238;2023-10-19T02:46:46;16.30;99.90
38784;DHT22;24531;45.502;12.238;2023-10-19T02:49:14;16.40;99.90
38784;DHT22;24531;45.502;12.238;2023-10-19T02:51:44;16.40;99.90
38784;DHT22;24531;45.502;12.238;2023-10-19T02:54:11;16.40;99.90
38784;DHT22;24531;45.502;12.238;2023-10-19T02:56:44;16.50;99.90
38784;DHT22;24531;45.502;12.238;2023-10-19T02:59:13;16.50;99.90
38784;DHT22;24531;45.502;12.238;2023-10-19T03:01:42;16.50;99.90
38784;DHT22;24531;45.502;12.238;2023-10-19T03:04:10;16.50;99.90
38784;DHT22;24531;45.502;12.238;2023-10-19T03:06:38;16.50;99.90
38784;DHT22;24531;45.502;12.238;2023-10-19T03:09:06;16.50;99.90
38784;DHT22;24531;45.502;12.238;2023-10-19T03:11:50;16.50;99.90
38784;DHT22;24531;45.502;12.238;2023-10-19T03:14:20;16.40;99.90
38784;DHT22;24531;45.502;12.238;2023-10-19T03:16:50;16.40;99.90
38784;DHT22;24531;45.502;12.238;2023-10-19T03:19:16;16.50;99.90
38784;DHT22;24531;45.502;12.238;2023-10-19T03:21:41;16.50;99.90
38784;DHT22;24531;45.502;12.238;2023-10-19T03:24:11;16.50;99.90
38784;DHT22;24531;45.502;12.238;2023-10-19T03:27:03;16.50;99.90
38784;DHT22;24531;45.502;12.238;2023-10-19T03:29:39;16.50;99.90
38784;DHT22;24531;45.502;12.238;2023-10-19T03:32:06;16.50;99.90
38784;DHT22;24531;45.502;12.238;2023-10-19T03:34:32;16.50;99.90
38784;DHT22;24531;45.502;12.238;2023-10-19T03:36:58;16.50;99.90
38784;DHT22;24531;45.502;12.238;2023-10-19T03:39:32;16.50;99.90
38784;DHT22;24531;45.502;12.238;2023-10-19T03:41:59;16.50;99.90
38784;DHT22;24531;45.502;12.238;2023-10-19T03:44:25;16.50;99.90
38784;DHT22;24531;45.502;12.238;2023-10-19T03:46:51;16.50;99.90
38784;DHT22;24531;45.502;12.238;2023-10-19T03:49:23;16.50;99.90
38784;DHT22;24531;45.502;12.238;2023-10-19T03:52:08;16.50;99.90
38784;DHT22;24531;45.502;12.238;2023-10-19T03:54:34;16.60;99.90
38784;DHT22;24531;45.502;12.238;2023-10-19T03:57:04;16.60;99.90
38784;DHT22;24531;45.502;12.238;2023-10-19T03:59:46;16.60;99.90
38784;DHT22;24531;45.502;12.238;2023-10-19T04:02:12;16.60;99.90
38784;DHT22;24531;45.502;12.238;2023-10-19T04:04:46;16.60;99.90
38784;DHT22;24531;45.502;12.238;2023-10-19T04:07:14;16.60;99.90
38784;DHT22;24531;45.502;12.238;2023-10-19T04:09:52;16.60;99.90
38784;DHT22;24531;45.502;12.238;2023-10-19T04:12:39;16.60;99.90
38784;DHT22;24531;45.502;12.238;2023-10-19T04:15:08;16.60;99.90
38784;DHT22;24531;45.502;12.238;2023-10-19T04:17:45;16.60;99.90
38784;DHT22;24531;45.502;12.238;2023-10-19T04:20:12;16.60;99.90
38784;DHT22;24531;45.502;12.238;2023-10-19T04:22:50;16.60;99.90
38784;DHT22;24531;45.502;12.238;2023-10-19T04:25:17;16.70;99.90
38784;DHT22;24531;45.502;12.238;2023-10-19T04:27:51;16.70;99.90
38784;DHT22;24531;45.502;12.238;2023-10-19T04:30:17;16.70;99.90
38784;DHT22;24531;45.502;12.238;2023-10-19T04:32:52;16.70;99.90
38784;DHT22;24531;45.502;12.238;2023-10-19T04:35:19;16.70;99.90
38784;DHT22;24531;45.502;12.238;2023-10-19T04:37:51;16.70;99.90
38784;DHT22;24531;45.502;12.238;2023-10-19T04:40:21;16.70;99.90
38784;DHT22;24531;45.502;12.238;2023-10-19T04:42:49;16.70;99.90
38784;DHT22;24531;45.502;12.238;2023-10-19T04:45:15;16.60;99.90
38784;DHT22;24531;45.502;12.238;2023-10-19T04:47:41;16.60;99.90
38784;DHT22;24531;45.502;12.238;2023-10-19T04:50:07;16.60;99.90
38784;DHT22;24531;45.502;12.238;2023-10-19T04:52:36;16.50;99.90
38784;DHT22;24531;45.502;12.238;2023-10-19T04:55:02;16.50;99.90
38784;DHT22;24531;45.502;12.238;2023-10-19T04:57:28;16.50;99.90
38784;DHT22;24531;45.502;12.238;2023-10-19T04:59:56;16.50;99.90
38784;DHT22;24531;45.502;12.238;2023-10-19T05:02:22;16.50;99.90
38784;DHT22;24531;45.502;12.238;2023-10-19T05:04:47;16.50;99.90
38784;DHT22;24531;45.502;12.238;2023-10-19T05:07:14;14.40;99.90
38784;DHT22;24531;45.502;12.238;2023-10-19T05:09:43;16.50;99.90
38784;DHT22;24531;45.502;12.238;2023-10-19T05:12:09;16.50;99.90
38784;DHT22;24531;45.502;12.238;2023-10-19T05:14:42;16.50;99.90
38784;DHT22;24531;45.502;12.238;2023-10-19T05:17:08;16.50;99.90
38784;DHT22;24531;45.502;12.238;2023-10-19T05:19:36;16.50;99.90
38784;DHT22;24531;45.502;12.238;2023-10-19T05:22:04;16.50;99.90
38784;DHT22;24531;45.502;12.238;2023-10-19T05:24:31;16.60;99.90
38784;DHT22;24531;45.502;12.238;2023-10-19T05:26:57;16.60;99.90
38784;DHT22;24531;45.502;12.238;2023-10-19T05:29:23;16.50;99.90
38784;DHT22;24531;45.502;12.238;2023-10-19T05:31:52;16.50;99.90
38784;DHT22;24531;45.502;12.238;2023-10-19T05:34:26;16.50;99.90
38784;DHT22;24531;45.502;12.238;2023-10-19T05:36:52;16.50;99.90
38784;DHT22;24531;45.502;12.238;2023-10-19T05:39:19;16.50;99.90
38784;DHT22;24531;45.502;12.238;2023-10-19T05:41:45;16.60;99.90
38784;DHT22;24531;45.502;12.238;2023-10-19T05:44:11;16.60;99.90
38784;DHT22;24531;45.502;12.238;2023-10-19T05:46:37;16.70;99.90
38784;DHT22;24531;45.502;12.238;2023-10-19T05:49:03;16.60;99.90
38784;DHT22;24531;45.502;12.238;2023-10-19T05:51:32;16.60;99.90
38784;DHT22;24531;45.502;12.238;2023-10-19T05:53:58;16.60;99.90
38784;DHT22;24531;45.502;12.238;2023-10-19T05:56:33;16.60;99.90
38784;DHT22;24531;45.502;12.238;2023-10-19T05:59:01;16.60;99.90
38784;DHT22;24531;45.502;12.238;2023-10-19T06:01:28;16.60;99.90
38784;DHT22;24531;45.502;12.238;2023-10-19T06:03:53;16.50;99.90
38784;DHT22;24531;45.502;12.238;2023-10-19T06:06:20;16.60;99.90
38784;DHT22;24531;45.502;12.238;2023-10-19T06:08:46;16.70;99.90
38784;DHT22;24531;45.502;12.238;2023-10-19T06:11:12;16.70;99.90
38784;DHT22;24531;45.502;12.238;2023-10-19T06:13:37;16.70;99.90
38784;DHT22;24531;45.502;12.238;2023-10-19T06:16:03;16.70;99.90
38784;DHT22;24531;45.502;12.238;2023-10-19T06:18:29;16.80;99.90
38784;DHT22;24531;45.502;12.238;2023-10-19T06:20:55;16.80;99.90
38784;DHT22;24531;45.502;12.238;2023-10-19T06:23:21;16.80;99.90
38784;DHT22;24531;45.502;12.238;2023-10-19T06:25:46;16.90;99.90
38784;DHT22;24531;45.502;12.238;2023-10-19T06:28:12;16.90;99.90
38784;DHT22;24531;45.502;12.238;2023-10-19T06:30:38;16.90;99.90
38784;DHT22;24531;45.502;12.238;2023-10-19T06:33:05;16.90;99.90
38784;DHT22;24531;45.502;12.238;2023-10-19T06:35:32;16.90;99.90
38784;DHT22;24531;45.502;12.238;2023-10-19T06:37:58;16.90;99.90
38784;DHT22;24531;45.502;12.238;2023-10-19T06:40:29;17.00;99.90
38784;DHT22;24531;45.502;12.238;2023-10-19T06:42:55;17.00;99.90
38784;DHT22;24531;45.502;12.238;2023-10-19T06:45:22;17.00;99.90
38784;DHT22;24531;45.502;12.238;2023-10-19T06:47:49;17.00;99.90
38784;DHT22;24531;45.502;12.238;2023-10-19T06:50:17;17.00;99.90
38784;DHT22;24531;45.502;12.238;2023-10-19T06:52:44;17.00;99.90
38784;DHT22;24531;45.502;12.238;2023-10-19T06:55:10;17.00;99.90
38784;DHT22;24531;45.502;12.238;2023-10-19T06:57:42;17.10;99.90
38784;DHT22;24531;45.502;12.238;2023-10-19T07:00:13;17.10;99.90
38784;DHT22;24531;45.502;12.238;2023-10-19T07:02:40;17.10;99.90
38784;DHT22;24531;45.502;12.238;2023-10-19T07:05:07;17.10;99.90
38784;DHT22;24531;45.502;12.238;2023-10-19T07:07:36;17.20;99.90
38784;DHT22;24531;45.502;12.238;2023-10-19T07:10:02;17.20;99.90
38784;DHT22;24531;45.502;12.238;2023-10-19T07:12:29;17.30;99.90
38784;DHT22;24531;45.502;12.238;2023-10-19T07:14:54;17.40;99.90
38784;DHT22;24531;45.502;12.238;2023-10-19T07:17:20;17.40;99.90
38784;DHT22;24531;45.502;12.238;2023-10-19T07:19:45;17.40;99.90
38784;DHT22;24531;45.502;12.238;2023-10-19T07:22:14;17.40;99.90
38784;DHT22;24531;45.502;12.238;2023-10-19T07:24:40;17.50;99.90
38784;DHT22;24531;45.502;12.238;2023-10-19T07:27:07;17.50;99.90
38784;DHT22;24531;45.502;12.238;2023-10-19T07:29:33;17.50;99.90
38784;DHT22;24531;45.502;12.238;2023-10-19T07:32:02;17.60;99.90
38784;DHT22;24531;45.502;12.238;2023-10-19T07:34:32;17.60;99.90
38784;DHT22;24531;45.502;12.238;2023-10-19T07:36:58;17.60;99.90
38784;DHT22;24531;45.502;12.238;2023-10-19T07:39:26;17.60;99.90
38784;DHT22;24531;45.502;12.238;2023-10-19T07:41:55;17.60;99.90
38784;DHT22;24531;45.502;12.238;2023-10-19T07:44:21;17.60;99.90
38784;DHT22;24531;45.502;12.238;2023-10-19T07:46:47;17.60;99.90
38784;DHT22;24531;45.502;12.238;2023-10-19T07:49:12;17.60;99.90
38784;DHT22;24531;45.502;12.238;2023-10-19T07:51:50;17.60;99.90
38784;DHT22;24531;45.502;12.238;2023-10-19T07:54:16;17.60;99.90
38784;DHT22;24531;45.502;12.238;2023-10-19T07:56:42;17.60;99.90
38784;DHT22;24531;45.502;12.238;2023-10-19T07:59:09;17.70;99.90
38784;DHT22;24531;45.502;12.238;2023-10-19T08:01:34;17.70;99.90
38784;DHT22;24531;45.502;12.238;2023-10-19T08:04:01;17.70;99.90
38784;DHT22;24531;45.502;12.238;2023-10-19T08:06:27;17.70;99.90
38784;DHT22;24531;45.502;12.238;2023-10-19T08:08:53;17.70;99.90
38784;DHT22;24531;45.502;12.238;2023-10-19T08:11:18;17.70;99.90
38784;DHT22;24531;45.502;12.238;2023-10-19T08:13:44;17.70;99.90
38784;DHT22;24531;45.502;12.238;2023-10-19T08:16:09;17.70;99.90
38784;DHT22;24531;45.502;12.238;2023-10-19T08:18:37;17.80;99.90
38784;DHT22;24531;45.502;12.238;2023-10-19T08:21:03;17.80;99.90
38784;DHT22;24531;45.502;12.238;2023-10-19T08:23:29;17.80;99.90
38784;DHT22;24531;45.502;12.238;2023-10-19T08:25:57;17.80;99.90
38784;DHT22;24531;45.502;12.238;2023-10-19T08:28:24;17.80;99.90
38784;DHT22;24531;45.502;12.238;2023-10-19T08:30:49;17.80;99.90
38784;DHT22;24531;45.502;12.238;2023-10-19T08:33:27;17.80;99.90
38784;DHT22;24531;45.502;12.238;2023-10-19T08:35:55;17.90;99.90
38784;DHT22;24531;45.502;12.238;2023-10-19T08:38:22;17.90;99.90
38784;DHT22;24531;45.502;12.238;2023-10-19T08:40:49;17.90;99.90
38784;DHT22;24531;45.502;12.238;2023-10-19T08:43:17;17.90;99.90
38784;DHT22;24531;45.502;12.238;2023-10-19T08:45:44;18.00;99.90
38784;DHT22;24531;45.502;12.238;2023-10-19T08:48:10;18.00;99.90
38784;DHT22;24531;45.502;12.238;2023-10-19T08:50:37;18.00;99.90
38784;DHT22;24531;45.502;12.238;2023-10-19T08:53:04;18.00;99.90
38784;DHT22;24531;45.502;12.238;2023-10-19T08:55:30;18.10;99.90
38784;DHT22;24531;45.502;12.238;2023-10-19T08:57:56;18.10;99.90
38784;DHT22;24531;45.502;12.238;2023-10-19T09:00:25;18.10;99.90
38784;DHT22;24531;45.502;12.238;2023-10-19T09:02:53;18.20;99.90
38784;DHT22;24531;45.502;12.238;2023-10-19T09:05:19;18.20;99.90
38784;DHT22;24531;45.502;12.238;2023-10-19T09:07:50;18.20;99.90
38784;DHT22;24531;45.502;12.238;2023-10-19T09:10:25;18.30;99.90
38784;DHT22;24531;45.502;12.238;2023-10-19T09:13:07;18.20;99.90
38784;DHT22;24531;45.502;12.238;2023-10-19T09:15:38;18.20;99.90
38784;DHT22;24531;45.502;12.238;2023-10-19T09:20:42;18.20;99.90
38784;DHT22;24531;45.502;12.238;2023-10-19T09:23:24;18.20;99.90
38784;DHT22;24531;45.502;12.238;2023-10-19T09:25:51;18.20;99.90
38784;DHT22;24531;45.502;12.238;2023-10-19T09:28:23;18.30;99.90
38784;DHT22;24531;45.502;12.238;2023-10-19T09:30:50;18.40;99.90
38784;DHT22;24531;45.502;12.238;2023-10-19T09:33:16;18.40;99.90
38784;DHT22;24531;45.502;12.238;2023-10-19T09:35:45;18.40;99.90
38784;DHT22;24531;45.502;12.238;2023-10-19T09:38:14;18.40;99.90
38784;DHT22;24531;45.502;12.238;2023-10-19T09:40:40;18.40;99.90
38784;DHT22;24531;45.502;12.238;2023-10-19T09:43:11;18.40;99.90
38784;DHT22;24531;45.502;12.238;2023-10-19T09:45:41;18.50;99.90
38784;DHT22;24531;45.502;12.238;2023-10-19T09:48:08;18.50;99.90
38784;DHT22;24531;45.502;12.238;2023-10-19T09:50:34;18.50;99.90
38784;DHT22;24531;45.502;12.238;2023-10-19T09:53:02;18.50;99.90
38784;DHT22;24531;45.502;12.238;2023-10-19T09:55:38;18.60;99.90
38784;DHT22;24531;45.502;12.238;2023-10-19T09:58:12;17.20;99.90
38784;DHT22;24531;45.502;12.238;2023-10-19T10:00:44;18.60;99.90
38784;DHT22;24531;45.502;12.238;2023-10-19T10:03:46;18.60;99.90
38784;DHT22;24531;45.502;12.238;2023-10-19T10:06:13;18.70;99.90
38784;DHT22;24531;45.502;12.238;2023-10-19T10:23:19;19.30;99.90
38784;DHT22;24531;45.502;12.238;2023-10-19T10:25:50;19.30;99.90
38784;DHT22;24531;45.502;12.238;2023-10-19T10:28:19;19.40;99.90
38784;DHT22;24531;45.502;12.238;2023-10-19T10:31:14;19.30;99.90
38784;DHT22;24531;45.502;12.238;2023-10-19T10:33:53;19.30;99.90
38784;DHT22;24531;45.502;12.238;2023-10-19T10:36:23;19.30;99.90
38784;DHT22;24531;45.502;12.238;2023-10-19T10:38:50;19.30;99.90
38784;DHT22;24531;45.502;12.238;2023-10-19T10:41:25;19.20;99.90
38784;DHT22;24531;45.502;12.238;2023-10-19T10:43:55;19.10;99.90
38784;DHT22;24531;45.502;12.238;2023-10-19T10:46:26;19.10;99.90
38784;DHT22;24531;45.502;12.238;2023-10-19T10:48:55;19.10;99.90
38784;DHT22;24531;45.502;12.238;2023-10-19T10:51:24;19.20;99.90
38784;DHT22;24531;45.502;12.238;2023-10-19T10:53:51;19.30;99.90
38784;DHT22;24531;45.502;12.238;2023-10-19T10:56:18;19.30;99.90
38784;DHT22;24531;45.502;12.238;2023-10-19T10:58:44;19.40;99.90
38784;DHT22;24531;45.502;12.238;2023-10-19T11:01:10;19.40;99.90
38784;DHT22;24531;45.502;12.238;2023-10-19T11:03:37;19.40;99.90
38784;DHT22;24531;45.502;12.238;2023-10-19T11:06:06;19.50;99.90
38784;DHT22;24531;45.502;12.238;2023-10-19T11:08:36;19.50;99.90
38784;DHT22;24531;45.502;12.238;2023-10-19T11:11:04;19.50;99.90
38784;DHT22;24531;45.502;12.238;2023-10-19T11:13:30;19.60;99.90
38784;DHT22;24531;45.502;12.238;2023-10-19T11:15:58;19.60;99.90
38784;DHT22;24531;45.502;12.238;2023-10-19T11:18:37;19.60;99.90
38784;DHT22;24531;45.502;12.238;2023-10-19T11:21:09;19.60;99.90
38784;DHT22;24531;45.502;12.238;2023-10-19T11:23:39;19.70;99.90
38784;DHT22;24531;45.502;12.238;2023-10-19T11:26:06;19.90;99.90
38784;DHT22;24531;45.502;12.238;2023-10-19T11:28:33;20.00;99.90
38784;DHT22;24531;45.502;12.238;2023-10-19T11:31:19;20.20;99.90
38784;DHT22;24531;45.502;12.238;2023-10-19T11:33:48;20.30;99.90
38784;DHT22;24531;45.502;12.238;2023-10-19T11:36:15;20.30;99.90
38784;DHT22;24531;45.502;12.238;2023-10-19T11:38:48;20.30;99.90
38784;DHT22;24531;45.502;12.238;2023-10-19T11:41:15;20.30;99.90
38784;DHT22;24531;45.502;12.238;2023-10-19T11:43:42;20.40;99.90
38784;DHT22;24531;45.502;12.238;2023-10-19T11:46:08;20.50;99.90
38784;DHT22;24531;45.502;12.238;2023-10-19T11:48:36;20.50;99.90
38784;DHT22;24531;45.502;12.238;2023-10-19T11:51:03;20.50;99.90
38784;DHT22;24531;45.502;12.238;2023-10-19T11:53:34;20.50;99.90
38784;DHT22;24531;45.502;12.238;2023-10-19T11:56:03;20.50;99.90
38784;DHT22;24531;45.502;12.238;2023-10-19T11:58:30;20.50;99.90
38784;DHT22;24531;45.502;12.238;2023-10-19T12:01:01;20.40;99.90
38784;DHT22;24531;45.502;12.238;2023-10-19T12:03:28;20.40;99.90
38784;DHT22;24531;45.502;12.238;2023-10-19T12:05:53;20.40;99.90
38784;DHT22;24531;45.502;12.238;2023-10-19T12:08:20;20.40;99.90
38784;DHT22;24531;45.502;12.238;2023-10-19T12:10:46;20.50;99.90
38784;DHT22;24531;45.502;12.238;2023-10-19T12:13:11;20.50;99.90
38784;DHT22;24531;45.502;12.238;2023-10-19T12:15:37;20.60;99.90
38784;DHT22;24531;45.502;12.238;2023-10-19T12:18:03;20.60;99.90
38784;DHT22;24531;45.502;12.238;2023-10-19T12:20:29;20.60;99.90
38784;DHT22;24531;45.502;12.238;2023-10-19T12:22:58;20.50;99.90
38784;DHT22;24531;45.502;12.238;2023-10-19T12:25:25;20.50;99.90
38784;DHT22;24531;45.502;12.238;2023-10-19T12:28:00;20.50;99.90
38784;DHT22;24531;45.502;12.238;2023-10-19T12:30:26;20.50;99.90
38784;DHT22;24531;45.502;12.238;2023-10-19T12:32:59;20.60;99.90
38784;DHT22;24531;45.502;12.238;2023-10-19T12:35:25;20.50;99.90
38784;DHT22;24531;45.502;12.238;2023-10-19T12:38:07;20.60;99.90
38784;DHT22;24531;45.502;12.238;2023-10-19T12:40:41;20.60;99.90
38784;DHT22;24531;45.502;12.238;2023-10-19T12:43:08;20.70;99.90
38784;DHT22;24531;45.502;12.238;2023-10-19T12:45:36;20.80;99.90
38784;DHT22;24531;45.502;12.238;2023-10-19T12:48:05;20.70;99.90
38784;DHT22;24531;45.502;12.238;2023-10-19T12:50:31;20.70;99.90
38784;DHT22;24531;45.502;12.238;2023-10-19T12:52:57;20.60;99.90
38784;DHT22;24531;45.502;12.238;2023-10-19T12:55:22;20.60;99.90
38784;DHT22;24531;45.502;12.238;2023-10-19T12:57:55;20.50;99.90
38784;DHT22;24531;45.502;12.238;2023-10-19T13:00:22;20.60;99.90
38784;DHT22;24531;45.502;12.238;2023-10-19T13:03:03;20.50;99.90
38784;DHT22;24531;45.502;12.238;2023-10-19T13:05:36;20.50;99.90
38784;DHT22;24531;45.502;12.238;2023-10-19T13:08:04;20.50;99.90
38784;DHT22;24531;45.502;12.238;2023-10-19T13:10:31;20.50;99.90
38784;DHT22;24531;45.502;12.238;2023-10-19T13:13:03;20.40;99.90
38784;DHT22;24531;45.502;12.238;2023-10-19T13:15:33;20.30;99.90
38784;DHT22;24531;45.502;12.238;2023-10-19T13:18:01;20.20;99.90
38784;DHT22;24531;45.502;12.238;2023-10-19T13:20:27;20.20;99.90
38784;DHT22;24531;45.502;12.238;2023-10-19T13:23:02;20.20;99.90
38784;DHT22;24531;45.502;12.238;2023-10-19T13:25:30;20.10;99.90
38784;DHT22;24531;45.502;12.238;2023-10-19T13:28:13;20.10;99.90
38784;DHT22;24531;45.502;12.238;2023-10-19T13:30:45;20.10;99.90
38784;DHT22;24531;45.502;12.238;2023-10-19T13:33:13;20.10;99.90
38784;DHT22;24531;45.502;12.238;2023-10-19T13:35:41;20.10;99.90
38784;DHT22;24531;45.502;12.238;2023-10-19T13:38:09;20.10;99.90
38784;DHT22;24531;45.502;12.238;2023-10-19T13:40:38;20.20;99.90
38784;DHT22;24531;45.502;12.238;2023-10-19T13:43:05;20.20;99.90
38784;DHT22;24531;45.502;12.238;2023-10-19T13:45:36;20.20;99.90
38784;DHT22;24531;45.502;12.238;2023-10-19T13:48:03;20.20;99.90
38784;DHT22;24531;45.502;12.238;2023-10-19T13:50:30;20.20;99.90
38784;DHT22;24531;45.502;12.238;2023-10-19T13:52:57;20.20;99.90
38784;DHT22;24531;45.502;12.238;2023-10-19T13:55:29;20.20;99.90
38784;DHT22;24531;45.502;12.238;2023-10-19T13:57:55;20.20;99.90
38784;DHT22;24531;45.502;12.238;2023-10-19T14:00:22;20.20;99.90
38784;DHT22;24531;45.502;12.238;2023-10-19T14:03:01;20.20;99.90
38784;DHT22;24531;45.502;12.238;2023-10-19T14:05:28;20.20;99.90
38784;DHT22;24531;45.502;12.238;2023-10-19T14:07:54;20.10;99.90
38784;DHT22;24531;45.502;12.238;2023-10-19T14:10:20;20.10;99.90
38784;DHT22;24531;45.502;12.238;2023-10-19T14:12:47;20.10;99.90
38784;DHT22;24531;45.502;12.238;2023-10-19T14:15:20;20.10;99.90
38784;DHT22;24531;45.502;12.238;2023-10-19T14:17:47;20.10;99.90
38784;DHT22;24531;45.502;12.238;2023-10-19T14:20:14;20.20;99.90
38784;DHT22;24531;45.502;12.238;2023-10-19T14:22:41;20.10;99.90
38784;DHT22;24531;45.502;12.238;2023-10-19T14:25:09;20.10;99.90
38784;DHT22;24531;45.502;12.238;2023-10-19T14:27:41;20.10;99.90
38784;DHT22;24531;45.502;12.238;2023-10-19T14:30:11;20.10;99.90
38784;DHT22;24531;45.502;12.238;2023-10-19T14:32:42;20.10;99.90
38784;DHT22;24531;45.502;12.238;2023-10-19T14:35:09;20.10;99.90
38784;DHT22;24531;45.502;12.238;2023-10-19T14:37:41;20.00;99.90
38784;DHT22;24531;45.502;12.238;2023-10-19T14:40:15;20.00;99.90
38784;DHT22;24531;45.502;12.238;2023-10-19T14:42:42;19.90;99.90
38784;DHT22;24531;45.502;12.238;2023-10-19T14:45:12;19.90;99.90
38784;DHT22;24531;45.502;12.238;2023-10-19T14:47:40;19.90;99.90
38784;DHT22;24531;45.502;12.238;2023-10-19T14:50:11;20.00;99.90
38784;DHT22;24531;45.502;12.238;2023-10-19T14:52:37;19.90;99.90
38784;DHT22;24531;45.502;12.238;2023-10-19T14:55:05;19.90;99.90
38784;DHT22;24531;45.502;12.238;2023-10-19T14:57:32;19.90;99.90
38784;DHT22;24531;45.502;12.238;2023-10-19T14:59:58;19.90;99.90
38784;DHT22;24531;45.502;12.238;2023-10-19T15:02:34;19.90;99.90
38784;DHT22;24531;45.502;12.238;2023-10-19T15:05:01;19.90;99.90
38784;DHT22;24531;45.502;12.238;2023-10-19T15:07:26;19.90;99.90
38784;DHT22;24531;45.502;12.238;2023-10-19T15:09:53;19.90;99.90
38784;DHT22;24531;45.502;12.238;2023-10-19T15:12:18;19.90;99.90
38784;DHT22;24531;45.502;12.238;2023-10-19T15:14:44;19.90;99.90
38784;DHT22;24531;45.502;12.238;2023-10-19T15:17:10;19.90;99.90
38784;DHT22;24531;45.502;12.238;2023-10-19T15:19:37;19.90;99.90
38784;DHT22;24531;45.502;12.238;2023-10-19T15:22:02;19.90;99.90
38784;DHT22;24531;45.502;12.238;2023-10-19T15:24:28;19.90;99.90
38784;DHT22;24531;45.502;12.238;2023-10-19T15:26:53;19.90;99.90
38784;DHT22;24531;45.502;12.238;2023-10-19T15:29:19;19.90;99.90
38784;DHT22;24531;45.502;12.238;2023-10-19T15:31:44;19.90;99.90
38784;DHT22;24531;45.502;12.238;2023-10-19T15:34:10;19.90;99.90
38784;DHT22;24531;45.502;12.238;2023-10-19T15:36:36;19.90;99.90
38784;DHT22;24531;45.502;12.238;2023-10-19T15:39:02;19.90;99.90
38784;DHT22;24531;45.502;12.238;2023-10-19T15:41:28;19.90;99.90
38784;DHT22;24531;45.502;12.238;2023-10-19T15:43:55;19.90;99.90
38784;DHT22;24531;45.502;12.238;2023-10-19T15:46:20;19.90;99.90